sensor_id;sensor_type;location;lat;lon;timestamp;pressure;altitude;pressure_sealevel;temperature
69785;BMP280;14177;51.520;6.764;2023-09-19T00:01:41;100527.28;;;17.19
69785;BMP280;14177;51.520;6.764;2023-09-19T00:04:08;100516.78;;;17.19
69785;BMP280;14177;51.520;6.764;2023-09-19T00:06:37;100532.53;;;17.19
69785;BMP280;14177;51.520;6.764;2023-09-19T00:09:05;100530.16;;;17.14
69785;BMP280;14177;51.520;6.764;2023-09-19T00:11:32;100527.66;;;17.13
69785;BMP280;14177;51.520;6.764;2023-09-19T00:13:59;100528.59;;;17.12
69785;BMP280;14177;51.520;6.764;2023-09-19T00:16:26;100528.78;;;17.09
69785;BMP280;14177;51.520;6.764;2023-09-19T00:18:53;100532.44;;;17.07
69785;BMP280;14177;51.520;6.764;2023-09-19T00:21:21;100533.47;;;17.04
69785;BMP280;14177;51.520;6.764;2023-09-19T00:23:48;100535.16;;;17.05
69785;BMP280;14177;51.520;6.764;2023-09-19T00:26:15;100531.78;;;17.03
69785;BMP280;14177;51.520;6.764;2023-09-19T00:28:47;100535.44;;;17.01
69785;BMP280;14177;51.520;6.764;2023-09-19T00:31:14;100529.53;;;16.97
69785;BMP280;14177;51.520;6.764;2023-09-19T00:33:41;100531.38;;;16.95
69785;BMP280;14177;51.520;6.764;2023-09-19T00:36:09;100525.69;;;16.89
69785;BMP280;14177;51.520;6.764;2023-09-19T00:38:36;100532.81;;;16.87
69785;BMP280;14177;51.520;6.764;2023-09-19T00:41:03;100546.00;;;16.85
69785;BMP280;14177;51.520;6.764;2023-09-19T00:43:31;100546.09;;;16.84
69785;BMP280;14177;51.520;6.764;2023-09-19T00:46:01;100550.66;;;16.80
69785;BMP280;14177;51.520;6.764;2023-09-19T00:48:31;100554.34;;;16.78
69785;BMP280;14177;51.520;6.764;2023-09-19T00:51:02;100549.38;;;16.73
69785;BMP280;14177;51.520;6.764;2023-09-19T00:53:32;100554.81;;;16.70
69785;BMP280;14177;51.520;6.764;2023-09-19T00:56:05;100566.47;;;16.65
69785;BMP280;14177;51.520;6.764;2023-09-19T00:58:35;100562.28;;;16.62
69785;BMP280;14177;51.520;6.764;2023-09-19T01:01:04;100562.28;;;16.62
69785;BMP280;14177;51.520;6.764;2023-09-19T01:03:36;100566.00;;;16.58
69785;BMP280;14177;51.520;6.764;2023-09-19T01:06:04;100568.88;;;16.54
69785;BMP280;14177;51.520;6.764;2023-09-19T01:08:31;100569.06;;;16.51
69785;BMP280;14177;51.520;6.764;2023-09-19T01:11:16;100578.72;;;16.50
69785;BMP280;14177;51.520;6.764;2023-09-19T01:14:10;100579.53;;;16.51
69785;BMP280;14177;51.520;6.764;2023-09-19T01:16:53;100572.91;;;16.45
69785;BMP280;14177;51.520;6.764;2023-09-19T01:22:22;100585.31;;;16.42
69785;BMP280;14177;51.520;6.764;2023-09-19T01:30:56;100594.50;;;16.35
69785;BMP280;14177;51.520;6.764;2023-09-19T01:33:26;100590.09;;;16.35
69785;BMP280;14177;51.520;6.764;2023-09-19T01:35:53;100601.44;;;16.36
69785;BMP280;14177;51.520;6.764;2023-09-19T01:38:22;100608.59;;;16.32
69785;BMP280;14177;51.520;6.764;2023-09-19T01:41:06;100618.31;;;16.30
69785;BMP280;14177;51.520;6.764;2023-09-19T01:43:41;100600.88;;;16.29
69785;BMP280;14177;51.520;6.764;2023-09-19T01:46:24;100600.41;;;16.23
69785;BMP280;14177;51.520;6.764;2023-09-19T01:52:11;100608.50;;;16.18
69785;BMP280;14177;51.520;6.764;2023-09-19T01:54:52;100609.53;;;16.16
69785;BMP280;14177;51.520;6.764;2023-09-19T01:57:32;100613.16;;;16.13
69785;BMP280;14177;51.520;6.764;2023-09-19T02:00:10;100607.16;;;16.11
69785;BMP280;14177;51.520;6.764;2023-09-19T02:02:47;100609.00;;;16.09
69785;BMP280;14177;51.520;6.764;2023-09-19T02:05:23;100615.28;;;16.07
69785;BMP280;14177;51.520;6.764;2023-09-19T02:07:55;100617.16;;;16.05
69785;BMP280;14177;51.520;6.764;2023-09-19T02:10:22;100625.16;;;16.02
69785;BMP280;14177;51.520;6.764;2023-09-19T02:12:50;100621.78;;;16.00
69785;BMP280;14177;51.520;6.764;2023-09-19T02:15:18;100626.44;;;15.95
69785;BMP280;14177;51.520;6.764;2023-09-19T02:17:46;100634.56;;;15.90
69785;BMP280;14177;51.520;6.764;2023-09-19T02:20:13;100636.41;;;15.88
69785;BMP280;14177;51.520;6.764;2023-09-19T02:22:43;100632.34;;;15.83
69785;BMP280;14177;51.520;6.764;2023-09-19T02:25:11;100644.78;;;15.80
69785;BMP280;14177;51.520;6.764;2023-09-19T02:27:40;100644.00;;;15.78
69785;BMP280;14177;51.520;6.764;2023-09-19T02:30:08;100634.28;;;15.80
69785;BMP280;14177;51.520;6.764;2023-09-19T02:32:35;100637.09;;;15.77
69785;BMP280;14177;51.520;6.764;2023-09-19T02:35:06;100663.28;;;15.77
69785;BMP280;14177;51.520;6.764;2023-09-19T02:37:34;100635.88;;;15.82
69785;BMP280;14177;51.520;6.764;2023-09-19T02:40:02;100643.91;;;15.79
69785;BMP280;14177;51.520;6.764;2023-09-19T02:42:29;100649.09;;;15.81
69785;BMP280;14177;51.520;6.764;2023-09-19T02:44:57;100648.16;;;15.82
69785;BMP280;14177;51.520;6.764;2023-09-19T02:47:24;100644.78;;;15.80
69785;BMP280;14177;51.520;6.764;2023-09-19T02:49:51;100651.75;;;15.79
69785;BMP280;14177;51.520;6.764;2023-09-19T02:52:18;100652.63;;;15.80
69785;BMP280;14177;51.520;6.764;2023-09-19T02:54:46;100655.25;;;15.80
69785;BMP280;14177;51.520;6.764;2023-09-19T02:57:13;100665.72;;;15.80
69785;BMP280;14177;51.520;6.764;2023-09-19T02:59:42;100669.19;;;15.80
69785;BMP280;14177;51.520;6.764;2023-09-19T03:02:11;100673.59;;;15.80
69785;BMP280;14177;51.520;6.764;2023-09-19T03:04:38;100673.41;;;15.82
69785;BMP280;14177;51.520;6.764;2023-09-19T03:07:05;100669.09;;;15.82
69785;BMP280;14177;51.520;6.764;2023-09-19T03:09:32;100671.72;;;15.82
69785;BMP280;14177;51.520;6.764;2023-09-19T03:11:59;100661.31;;;15.80
69785;BMP280;14177;51.520;6.764;2023-09-19T03:14:27;100673.59;;;15.80
69785;BMP280;14177;51.520;6.764;2023-09-19T03:16:58;100663.78;;;15.83
69785;BMP280;14177;51.520;6.764;2023-09-19T03:19:27;100667.41;;;15.81
69785;BMP280;14177;51.520;6.764;2023-09-19T03:21:55;100682.38;;;15.79
69785;BMP280;14177;51.520;6.764;2023-09-19T03:24:24;100676.38;;;15.77
69785;BMP280;14177;51.520;6.764;2023-09-19T03:26:51;100681.59;;;15.77
69785;BMP280;14177;51.520;6.764;2023-09-19T03:29:19;100687.00;;;15.74
69785;BMP280;14177;51.520;6.764;2023-09-19T03:31:46;100676.69;;;15.71
69785;BMP280;14177;51.520;6.764;2023-09-19T03:34:13;100685.38;;;15.71
69785;BMP280;14177;51.520;6.764;2023-09-19T03:36:40;100692.56;;;15.68
69785;BMP280;14177;51.520;6.764;2023-09-19T03:39:08;100684.88;;;15.65
69785;BMP280;14177;51.520;6.764;2023-09-19T03:41:35;100694.41;;;15.66
69785;BMP280;14177;51.520;6.764;2023-09-19T03:44:04;100684.03;;;15.64
69785;BMP280;14177;51.520;6.764;2023-09-19T03:46:31;100690.09;;;15.65
69785;BMP280;14177;51.520;6.764;2023-09-19T03:48:59;100684.88;;;15.65
69785;BMP280;14177;51.520;6.764;2023-09-19T03:51:27;100688.41;;;15.64
69785;BMP280;14177;51.520;6.764;2023-09-19T03:53:54;100680.66;;;15.62
69785;BMP280;14177;51.520;6.764;2023-09-19T03:56:21;100681.66;;;15.60
69785;BMP280;14177;51.520;6.764;2023-09-19T03:58:48;100681.66;;;15.60
69785;BMP280;14177;51.520;6.764;2023-09-19T04:01:16;100686.97;;;15.58
69785;BMP280;14177;51.520;6.764;2023-09-19T04:03:45;100680.13;;;15.56
69785;BMP280;14177;51.520;6.764;2023-09-19T04:06:15;100686.22;;;15.56
69785;BMP280;14177;51.520;6.764;2023-09-19T04:08:44;100683.59;;;15.56
69785;BMP280;14177;51.520;6.764;2023-09-19T04:11:11;100688.72;;;15.58
69785;BMP280;14177;51.520;6.764;2023-09-19T04:13:39;100676.56;;;15.57
69785;BMP280;14177;51.520;6.764;2023-09-19T04:16:06;100680.97;;;15.56
69785;BMP280;14177;51.520;6.764;2023-09-19T04:18:37;100684.53;;;15.55
69785;BMP280;14177;51.520;6.764;2023-09-19T04:21:05;100681.19;;;15.52
69785;BMP280;14177;51.520;6.764;2023-09-19T04:23:33;100684.75;;;15.51
69785;BMP280;14177;51.520;6.764;2023-09-19T04:26:00;100685.66;;;15.50
69785;BMP280;14177;51.520;6.764;2023-09-19T04:28:27;100685.66;;;15.50
69785;BMP280;14177;51.520;6.764;2023-09-19T04:30:54;100683.03;;;15.50
69785;BMP280;14177;51.520;6.764;2023-09-19T04:33:22;100684.91;;;15.48
69785;BMP280;14177;51.520;6.764;2023-09-19T04:35:50;100674.28;;;15.51
69785;BMP280;14177;51.520;6.764;2023-09-19T04:38:18;100677.81;;;15.50
69785;BMP280;14177;51.520;6.764;2023-09-19T04:40:47;100680.38;;;15.51
69785;BMP280;14177;51.520;6.764;2023-09-19T04:43:14;100684.84;;;15.49
69785;BMP280;14177;51.520;6.764;2023-09-19T04:45:42;100677.13;;;15.46
69785;BMP280;14177;51.520;6.764;2023-09-19T04:48:09;100689.38;;;15.46
69785;BMP280;14177;51.520;6.764;2023-09-19T04:50:37;100685.97;;;15.44
69785;BMP280;14177;51.520;6.764;2023-09-19T04:53:05;100688.59;;;15.44
69785;BMP280;14177;51.520;6.764;2023-09-19T04:55:34;100692.09;;;15.44
69785;BMP280;14177;51.520;6.764;2023-09-19T04:58:02;100689.38;;;15.46
69785;BMP280;14177;51.520;6.764;2023-09-19T05:00:29;100698.91;;;15.47
69785;BMP280;14177;51.520;6.764;2023-09-19T05:02:57;100702.63;;;15.43
69785;BMP280;14177;51.520;6.764;2023-09-19T05:05:25;100719.94;;;15.45
69785;BMP280;14177;51.520;6.764;2023-09-19T05:07:53;100718.25;;;15.44
69785;BMP280;14177;51.520;6.764;2023-09-19T05:10:21;100724.16;;;15.48
69785;BMP280;14177;51.520;6.764;2023-09-19T05:12:48;100732.94;;;15.47
69785;BMP280;14177;51.520;6.764;2023-09-19T05:15:19;100740.78;;;15.47
69785;BMP280;14177;51.520;6.764;2023-09-19T05:17:51;100739.97;;;15.46
69785;BMP280;14177;51.520;6.764;2023-09-19T05:20:23;100748.75;;;15.45
69785;BMP280;14177;51.520;6.764;2023-09-19T05:23:02;100747.81;;;15.46
69785;BMP280;14177;51.520;6.764;2023-09-19T05:25:32;100753.88;;;15.47
69785;BMP280;14177;51.520;6.764;2023-09-19T05:28:00;100742.50;;;15.48
69785;BMP280;14177;51.520;6.764;2023-09-19T05:30:31;100755.41;;;15.51
69785;BMP280;14177;51.520;6.764;2023-09-19T05:32:59;100757.97;;;15.52
69785;BMP280;14177;51.520;6.764;2023-09-19T05:35:26;100764.81;;;15.55
69785;BMP280;14177;51.520;6.764;2023-09-19T05:37:55;100762.03;;;15.58
69785;BMP280;14177;51.520;6.764;2023-09-19T05:40:23;100774.16;;;15.60
69785;BMP280;14177;51.520;6.764;2023-09-19T05:42:50;100769.53;;;15.65
69785;BMP280;14177;51.520;6.764;2023-09-19T05:45:18;100768.50;;;15.68
69785;BMP280;14177;51.520;6.764;2023-09-19T05:47:52;100771.88;;;15.70
69785;BMP280;14177;51.520;6.764;2023-09-19T05:50:23;100778.72;;;15.72
69785;BMP280;14177;51.520;6.764;2023-09-19T05:52:53;100777.63;;;15.76
69785;BMP280;14177;51.520;6.764;2023-09-19T05:55:23;100774.97;;;15.78
69785;BMP280;14177;51.520;6.764;2023-09-19T05:57:53;100779.28;;;15.79
69785;BMP280;14177;51.520;6.764;2023-09-19T06:00:24;100763.47;;;15.80
69785;BMP280;14177;51.520;6.764;2023-09-19T06:02:57;100769.41;;;15.83
69785;BMP280;14177;51.520;6.764;2023-09-19T06:05:26;100772.78;;;15.85
69785;BMP280;14177;51.520;6.764;2023-09-19T06:07:54;100771.69;;;15.89
69785;BMP280;14177;51.520;6.764;2023-09-19T06:10:21;100763.84;;;15.89
69785;BMP280;14177;51.520;6.764;2023-09-19T06:12:50;100777.63;;;15.93
69785;BMP280;14177;51.520;6.764;2023-09-19T06:15:17;100774.84;;;15.96
69785;BMP280;14177;51.520;6.764;2023-09-19T06:17:50;100757.25;;;15.98
69785;BMP280;14177;51.520;6.764;2023-09-19T06:20:17;100780.63;;;16.02
69785;BMP280;14177;51.520;6.764;2023-09-19T06:22:45;100778.00;;;16.02
69785;BMP280;14177;51.520;6.764;2023-09-19T06:25:14;100771.72;;;16.05
69785;BMP280;14177;51.520;6.764;2023-09-19T06:27:49;100770.69;;;16.07
69785;BMP280;14177;51.520;6.764;2023-09-19T06:30:19;100770.63;;;16.09
69785;BMP280;14177;51.520;6.764;2023-09-19T06:32:46;100762.69;;;16.10
69785;BMP280;14177;51.520;6.764;2023-09-19T06:35:15;100773.00;;;16.13
69785;BMP280;14177;51.520;6.764;2023-09-19T06:37:43;100773.00;;;16.13
69785;BMP280;14177;51.520;6.764;2023-09-19T06:40:14;100777.25;;;16.16
69785;BMP280;14177;51.520;6.764;2023-09-19T06:42:51;100777.91;;;16.19
69785;BMP280;14177;51.520;6.764;2023-09-19T06:45:20;100765.56;;;16.21
69785;BMP280;14177;51.520;6.764;2023-09-19T06:47:50;100788.22;;;16.22
69785;BMP280;14177;51.520;6.764;2023-09-19T06:50:22;100792.47;;;16.25
69785;BMP280;14177;51.520;6.764;2023-09-19T06:52:52;100794.19;;;16.26
69785;BMP280;14177;51.520;6.764;2023-09-19T06:55:22;100801.00;;;16.28
69785;BMP280;14177;51.520;6.764;2023-09-19T06:57:52;100815.97;;;16.26
69785;BMP280;14177;51.520;6.764;2023-09-19T07:00:21;100798.38;;;16.28
69785;BMP280;14177;51.520;6.764;2023-09-19T07:03:06;100803.44;;;16.33
69785;BMP280;14177;51.520;6.764;2023-09-19T07:05:40;100789.41;;;16.34
69785;BMP280;14177;51.520;6.764;2023-09-19T07:08:09;100787.28;;;16.40
69785;BMP280;14177;51.520;6.764;2023-09-19T07:10:38;100802.69;;;16.46
69785;BMP280;14177;51.520;6.764;2023-09-19T07:13:08;100788.38;;;16.52
69785;BMP280;14177;51.520;6.764;2023-09-19T07:15:39;100794.97;;;16.59
69785;BMP280;14177;51.520;6.764;2023-09-19T07:18:08;100796.50;;;16.63
69785;BMP280;14177;51.520;6.764;2023-09-19T07:20:38;100797.09;;;16.68
69785;BMP280;14177;51.520;6.764;2023-09-19T07:23:05;100800.16;;;16.76
69785;BMP280;14177;51.520;6.764;2023-09-19T07:25:33;100793.03;;;16.78
69785;BMP280;14177;51.520;6.764;2023-09-19T07:28:02;100800.81;;;16.79
69785;BMP280;14177;51.520;6.764;2023-09-19T07:30:29;100801.22;;;16.87
69785;BMP280;14177;51.520;6.764;2023-09-19T07:32:57;100795.63;;;16.93
69785;BMP280;14177;51.520;6.764;2023-09-19T07:35:25;100799.78;;;16.97
69785;BMP280;14177;51.520;6.764;2023-09-19T07:37:52;100803.09;;;17.01
69785;BMP280;14177;51.520;6.764;2023-09-19T07:40:20;100810.50;;;17.08
69785;BMP280;14177;51.520;6.764;2023-09-19T07:42:51;100813.84;;;17.11
69785;BMP280;14177;51.520;6.764;2023-09-19T07:45:18;100818.38;;;17.08
69785;BMP280;14177;51.520;6.764;2023-09-19T07:47:50;100809.75;;;17.06
69785;BMP280;14177;51.520;6.764;2023-09-19T07:50:19;100817.63;;;17.06
69785;BMP280;14177;51.520;6.764;2023-09-19T07:52:47;100809.75;;;17.06
69785;BMP280;14177;51.520;6.764;2023-09-19T07:55:15;100815.88;;;17.07
69785;BMP280;14177;51.520;6.764;2023-09-19T07:57:46;100829.00;;;17.07
69785;BMP280;14177;51.520;6.764;2023-09-19T08:00:14;100816.69;;;17.07
69785;BMP280;14177;51.520;6.764;2023-09-19T08:02:42;100815.31;;;17.15
69785;BMP280;14177;51.520;6.764;2023-09-19T08:05:12;100823.34;;;17.28
69785;BMP280;14177;51.520;6.764;2023-09-19T08:07:44;100832.50;;;17.36
69785;BMP280;14177;51.520;6.764;2023-09-19T08:10:15;100821.41;;;17.31
69785;BMP280;14177;51.520;6.764;2023-09-19T08:12:45;100822.94;;;17.35
69785;BMP280;14177;51.520;6.764;2023-09-19T08:15:19;100836.28;;;17.46
69785;BMP280;14177;51.520;6.764;2023-09-19T08:17:48;100832.09;;;17.58
69785;BMP280;14177;51.520;6.764;2023-09-19T08:20:16;100830.81;;;17.65
69785;BMP280;14177;51.520;6.764;2023-09-19T08:22:47;100833.81;;;17.73
69785;BMP280;14177;51.520;6.764;2023-09-19T08:25:16;100847.81;;;17.87
69785;BMP280;14177;51.520;6.764;2023-09-19T08:27:49;100835.06;;;17.95
69785;BMP280;14177;51.520;6.764;2023-09-19T08:30:19;100836.94;;;17.93
69785;BMP280;14177;51.520;6.764;2023-09-19T08:32:51;100845.22;;;18.01
69785;BMP280;14177;51.520;6.764;2023-09-19T08:35:18;100844.47;;;17.99
69785;BMP280;14177;51.520;6.764;2023-09-19T08:37:46;100845.91;;;18.05
69785;BMP280;14177;51.520;6.764;2023-09-19T08:40:13;100845.53;;;18.11
69785;BMP280;14177;51.520;6.764;2023-09-19T08:42:55;100852.56;;;18.24
69785;BMP280;14177;51.520;6.764;2023-09-19T08:45:24;100862.06;;;18.27
69785;BMP280;14177;51.520;6.764;2023-09-19T08:51:03;100854.88;;;18.44
69785;BMP280;14177;51.520;6.764;2023-09-19T08:54:06;100850.78;;;18.66
69785;BMP280;14177;51.520;6.764;2023-09-19T08:56:34;100849.44;;;18.87
69785;BMP280;14177;51.520;6.764;2023-09-19T08:59:06;100844.13;;;19.01
69785;BMP280;14177;51.520;6.764;2023-09-19T09:01:38;100848.91;;;19.09
69785;BMP280;14177;51.520;6.764;2023-09-19T09:04:09;100835.81;;;19.21
69785;BMP280;14177;51.520;6.764;2023-09-19T09:06:42;100848.38;;;19.30
69785;BMP280;14177;51.520;6.764;2023-09-19T09:09:10;100831.09;;;19.26
69785;BMP280;14177;51.520;6.764;2023-09-19T09:11:38;100839.13;;;19.11
69785;BMP280;14177;51.520;6.764;2023-09-19T09:14:07;100839.13;;;19.25
69785;BMP280;14177;51.520;6.764;2023-09-19T09:16:35;100830.91;;;19.42
69785;BMP280;14177;51.520;6.764;2023-09-19T09:19:02;100835.28;;;19.55
69785;BMP280;14177;51.520;6.764;2023-09-19T09:21:29;100824.03;;;19.65
69785;BMP280;14177;51.520;6.764;2023-09-19T09:23:56;100834.78;;;19.75
69785;BMP280;14177;51.520;6.764;2023-09-19T09:29:06;100832.66;;;19.55
69785;BMP280;14177;51.520;6.764;2023-09-19T09:31:33;100833.94;;;19.62
69785;BMP280;14177;51.520;6.764;2023-09-19T09:34:00;100845.13;;;19.78
69785;BMP280;14177;51.520;6.764;2023-09-19T09:36:41;100841.31;;;19.57
69785;BMP280;14177;51.520;6.764;2023-09-19T09:39:08;100836.25;;;19.54
69785;BMP280;14177;51.520;6.764;2023-09-19T09:41:45;100825.31;;;19.72
69785;BMP280;14177;51.520;6.764;2023-09-19T09:44:15;100835.44;;;19.91
69785;BMP280;14177;51.520;6.764;2023-09-19T09:46:44;100832.91;;;19.89
69785;BMP280;14177;51.520;6.764;2023-09-19T09:49:26;100828.41;;;20.04
69785;BMP280;14177;51.520;6.764;2023-09-19T09:52:05;100829.97;;;20.31
69785;BMP280;14177;51.520;6.764;2023-09-19T09:55:19;100834.00;;;20.24
69785;BMP280;14177;51.520;6.764;2023-09-19T09:58:17;100836.19;;;20.43
69785;BMP280;14177;51.520;6.764;2023-09-19T10:00:55;100833.66;;;20.16
69785;BMP280;14177;51.520;6.764;2023-09-19T10:03:36;100839.19;;;20.26
69785;BMP280;14177;51.520;6.764;2023-09-19T10:06:10;100834.63;;;20.28
69785;BMP280;14177;51.520;6.764;2023-09-19T10:09:06;100829.56;;;20.25
69785;BMP280;14177;51.520;6.764;2023-09-19T10:11:45;100816.66;;;20.45
69785;BMP280;14177;51.520;6.764;2023-09-19T10:14:15;100812.78;;;20.87
69785;BMP280;14177;51.520;6.764;2023-09-19T10:16:47;100818.88;;;20.87
69785;BMP280;14177;51.520;6.764;2023-09-19T10:19:46;100818.50;;;20.81
69785;BMP280;14177;51.520;6.764;2023-09-19T10:22:15;100830.59;;;20.47
69785;BMP280;14177;51.520;6.764;2023-09-19T10:24:45;100821.28;;;20.42
69785;BMP280;14177;51.520;6.764;2023-09-19T10:27:30;100825.75;;;20.41
69785;BMP280;14177;51.520;6.764;2023-09-19T10:30:07;100804.31;;;20.46
69785;BMP280;14177;51.520;6.764;2023-09-19T10:32:39;100802.25;;;20.13
69785;BMP280;14177;51.520;6.764;2023-09-19T10:35:07;100817.75;;;20.30
69785;BMP280;14177;51.520;6.764;2023-09-19T10:37:37;100814.78;;;20.35
69785;BMP280;14177;51.520;6.764;2023-09-19T10:40:07;100802.69;;;20.56
69785;BMP280;14177;51.520;6.764;2023-09-19T10:42:42;100783.47;;;20.66
69785;BMP280;14177;51.520;6.764;2023-09-19T10:45:12;100779.63;;;20.83
69785;BMP280;14177;51.520;6.764;2023-09-19T10:47:41;100798.13;;;21.06
69785;BMP280;14177;51.520;6.764;2023-09-19T10:50:19;100796.84;;;21.46
69785;BMP280;14177;51.520;6.764;2023-09-19T10:52:49;100800.50;;;21.32
69785;BMP280;14177;51.520;6.764;2023-09-19T10:55:28;100811.97;;;21.20
69785;BMP280;14177;51.520;6.764;2023-09-19T10:57:56;100819.72;;;21.34
69785;BMP280;14177;51.520;6.764;2023-09-19T11:00:57;100802.81;;;21.60
69785;BMP280;14177;51.520;6.764;2023-09-19T11:03:44;100788.91;;;21.11
69785;BMP280;14177;51.520;6.764;2023-09-19T11:06:19;100789.34;;;21.29
69785;BMP280;14177;51.520;6.764;2023-09-19T11:08:57;100790.47;;;21.48
69785;BMP280;14177;51.520;6.764;2023-09-19T11:11:44;100791.44;;;21.93
69785;BMP280;14177;51.520;6.764;2023-09-19T11:14:38;100795.16;;;21.90
69785;BMP280;14177;51.520;6.764;2023-09-19T11:30:50;100810.16;;;21.79
69785;BMP280;14177;51.520;6.764;2023-09-19T11:36:12;100816.63;;;21.64
69785;BMP280;14177;51.520;6.764;2023-09-19T11:41:37;100797.22;;;21.52
69785;BMP280;14177;51.520;6.764;2023-09-19T11:46:54;100797.19;;;21.41
69785;BMP280;14177;51.520;6.764;2023-09-19T11:49:29;100775.19;;;21.64
69785;BMP280;14177;51.520;6.764;2023-09-19T11:52:00;100766.19;;;21.89
69785;BMP280;14177;51.520;6.764;2023-09-19T11:54:29;100769.34;;;22.05
69785;BMP280;14177;51.520;6.764;2023-09-19T11:57:00;100773.78;;;22.04
69785;BMP280;14177;51.520;6.764;2023-09-19T11:59:31;100770.19;;;22.05
69785;BMP280;14177;51.520;6.764;2023-09-19T12:02:04;100786.53;;;22.21
69785;BMP280;14177;51.520;6.764;2023-09-19T12:04:43;100775.94;;;22.10
69785;BMP280;14177;51.520;6.764;2023-09-19T12:07:14;100758.06;;;22.35
69785;BMP280;14177;51.520;6.764;2023-09-19T12:09:50;100743.69;;;22.60
69785;BMP280;14177;51.520;6.764;2023-09-19T12:12:23;100758.06;;;22.89
69785;BMP280;14177;51.520;6.764;2023-09-19T12:14:57;100754.09;;;22.94
69785;BMP280;14177;51.520;6.764;2023-09-19T12:17:41;100756.63;;;22.85
69785;BMP280;14177;51.520;6.764;2023-09-19T12:20:10;100763.03;;;22.82
69785;BMP280;14177;51.520;6.764;2023-09-19T12:22:44;100747.78;;;22.95
69785;BMP280;14177;51.520;6.764;2023-09-19T12:25:14;100749.28;;;22.88
69785;BMP280;14177;51.520;6.764;2023-09-19T12:27:44;100745.38;;;22.61
69785;BMP280;14177;51.520;6.764;2023-09-19T12:30:15;100737.19;;;22.64
69785;BMP280;14177;51.520;6.764;2023-09-19T12:32:48;100740.28;;;22.69
69785;BMP280;14177;51.520;6.764;2023-09-19T12:35:32;100737.72;;;22.89
69785;BMP280;14177;51.520;6.764;2023-09-19T12:38:03;100732.00;;;23.05
69785;BMP280;14177;51.520;6.764;2023-09-19T12:40:32;100699.47;;;23.14
69785;BMP280;14177;51.520;6.764;2023-09-19T12:43:02;100733.66;;;23.17
69785;BMP280;14177;51.520;6.764;2023-09-19T12:45:33;100748.84;;;23.15
69785;BMP280;14177;51.520;6.764;2023-09-19T12:48:22;100724.97;;;22.83
69785;BMP280;14177;51.520;6.764;2023-09-19T12:51:09;100724.22;;;22.92
69785;BMP280;14177;51.520;6.764;2023-09-19T12:53:44;100717.19;;;23.02
69785;BMP280;14177;51.520;6.764;2023-09-19T12:56:14;100724.09;;;22.94
69785;BMP280;14177;51.520;6.764;2023-09-19T13:01:24;100731.06;;;22.63
69785;BMP280;14177;51.520;6.764;2023-09-19T13:04:18;100725.00;;;22.72
69785;BMP280;14177;51.520;6.764;2023-09-19T13:06:48;100722.69;;;22.79
69785;BMP280;14177;51.520;6.764;2023-09-19T13:09:21;100720.00;;;22.90
69785;BMP280;14177;51.520;6.764;2023-09-19T13:11:49;100730.16;;;23.05
69785;BMP280;14177;51.520;6.764;2023-09-19T13:14:26;100720.72;;;22.92
69785;BMP280;14177;51.520;6.764;2023-09-19T13:17:08;100709.88;;;22.95
69785;BMP280;14177;51.520;6.764;2023-09-19T13:19:48;100731.75;;;23.08
69785;BMP280;14177;51.520;6.764;2023-09-19T13:22:45;100725.00;;;23.15
69785;BMP280;14177;51.520;6.764;2023-09-19T13:25:18;100732.03;;;22.94
69785;BMP280;14177;51.520;6.764;2023-09-19T13:27:48;100743.91;;;22.68
69785;BMP280;14177;51.520;6.764;2023-09-19T13:30:19;100739.97;;;22.62
69785;BMP280;14177;51.520;6.764;2023-09-19T13:32:47;100729.88;;;22.34
69785;BMP280;14177;51.520;6.764;2023-09-19T13:35:15;100726.66;;;22.20
69785;BMP280;14177;51.520;6.764;2023-09-19T13:37:43;100735.16;;;22.23
69785;BMP280;14177;51.520;6.764;2023-09-19T13:40:14;100722.69;;;22.14
69785;BMP280;14177;51.520;6.764;2023-09-19T13:42:42;100722.81;;;22.24
69785;BMP280;14177;51.520;6.764;2023-09-19T13:45:09;100719.06;;;22.37
69785;BMP280;14177;51.520;6.764;2023-09-19T13:47:39;100731.25;;;22.40
69785;BMP280;14177;51.520;6.764;2023-09-19T13:50:08;100733.88;;;22.18
69785;BMP280;14177;51.520;6.764;2023-09-19T13:52:36;100730.25;;;21.97
69785;BMP280;14177;51.520;6.764;2023-09-19T13:55:03;100736.16;;;22.01
69785;BMP280;14177;51.520;6.764;2023-09-19T13:57:32;100723.53;;;21.93
69785;BMP280;14177;51.520;6.764;2023-09-19T14:00:00;100727.88;;;21.72
69785;BMP280;14177;51.520;6.764;2023-09-19T14:02:37;100735.47;;;21.53
69785;BMP280;14177;51.520;6.764;2023-09-19T14:05:06;100731.53;;;21.48
69785;BMP280;14177;51.520;6.764;2023-09-19T14:07:33;100711.41;;;21.34
69785;BMP280;14177;51.520;6.764;2023-09-19T14:10:00;100717.88;;;21.30
69785;BMP280;14177;51.520;6.764;2023-09-19T14:12:27;100726.16;;;21.26
69785;BMP280;14177;51.520;6.764;2023-09-19T14:14:54;100735.50;;;21.19
69785;BMP280;14177;51.520;6.764;2023-09-19T14:17:23;100740.66;;;21.09
69785;BMP280;14177;51.520;6.764;2023-09-19T14:19:51;100736.88;;;21.01
69785;BMP280;14177;51.520;6.764;2023-09-19T14:22:18;100724.84;;;20.97
69785;BMP280;14177;51.520;6.764;2023-09-19T14:24:45;100724.13;;;20.95
69785;BMP280;14177;51.520;6.764;2023-09-19T14:27:12;100723.81;;;20.99
69785;BMP280;14177;51.520;6.764;2023-09-19T14:29:39;100719.56;;;20.97
69785;BMP280;14177;51.520;6.764;2023-09-19T14:32:06;100723.50;;;21.15
69785;BMP280;14177;51.520;6.764;2023-09-19T14:34:33;100731.06;;;21.19
69785;BMP280;14177;51.520;6.764;2023-09-19T14:37:00;100720.72;;;21.16
69785;BMP280;14177;51.520;6.764;2023-09-19T14:39:27;100729.94;;;21.11
69785;BMP280;14177;51.520;6.764;2023-09-19T14:41:55;100717.56;;;21.00
69785;BMP280;14177;51.520;6.764;2023-09-19T14:44:22;100723.91;;;20.98
69785;BMP280;14177;51.520;6.764;2023-09-19T14:46:49;100726.03;;;20.93
69785;BMP280;14177;51.520;6.764;2023-09-19T14:49:16;100733.22;;;20.91
69785;BMP280;14177;51.520;6.764;2023-09-19T14:51:43;100727.56;;;20.85
69785;BMP280;14177;51.520;6.764;2023-09-19T14:54:11;100718.56;;;20.87
69785;BMP280;14177;51.520;6.764;2023-09-19T14:56:38;100721.56;;;20.83
69785;BMP280;14177;51.520;6.764;2023-09-19T14:59:09;100722.94;;;20.76
69785;BMP280;14177;51.520;6.764;2023-09-19T15:01:37;100710.91;;;20.72